Time;durP1;ratioP1;P1;durP2;ratioP2;P2;SDS_P1;SDS_P2;PMS_P1;PMS_P2;Temp;Humidity;BMP_temperature;BMP_pressure;BME280_temperature;BME280_humidity;BME280_pressure;Samples;Min_cycle;Max_cycle;Signal;HPM_P1;HPM_P2
2022/05/27 00:01:20;;;;;;;34.50;23.30;;;14.50;99.90;;;;;;5075504;28;20051;-81
2022/05/27 00:03:46;;;;;;;30.75;21.52;;;14.50;99.90;;;;;;5074574;28;20132;-82
2022/05/27 00:06:12;;;;;;;32.10;22.45;;;14.50;99.90;;;;;;5074528;28;20050;-81
2022/05/27 00:08:38;;;;;;;28.45;21.73;;;14.50;99.90;;;;;;5073886;28;20137;-81
2022/05/27 00:11:04;;;;;;;30.23;22.77;;;14.50;99.90;;;;;;5074978;28;20017;-81
2022/05/27 00:13:33;;;;;;;27.30;21.05;;;14.50;99.90;;;;;;5075200;28;20060;-82
2022/05/27 00:15:59;;;;;;;44.28;23.10;;;14.50;99.90;;;;;;5075925;28;20174;-82
2022/05/27 00:18:28;;;;;;;33.67;22.13;;;14.50;99.90;;;;;;5075986;28;20044;-81
2022/05/27 00:20:55;;;;;;;33.08;22.80;;;14.50;99.90;;;;;;5076149;28;20020;-82
2022/05/27 00:23:21;;;;;;;37.13;23.10;;;14.50;99.90;;;;;;5077581;28;20344;-82
2022/05/27 00:25:47;;;;;;;36.75;25.00;;;14.50;99.90;;;;;;5080222;28;20032;-81
2022/05/27 00:28:13;;;;;;;34.08;23.42;;;14.50;99.90;;;;;;5080059;28;20029;-82
2022/05/27 00:30:39;;;;;;;36.20;23.98;;;14.50;99.90;;;;;;5078861;28;20031;-82
2022/05/27 00:33:05;;;;;;;32.60;23.15;;;14.50;99.90;;;;;;5079718;28;20029;-81
2022/05/27 00:35:31;;;;;;;33.95;23.08;;;14.50;99.90;;;;;;5084766;28;20075;-85
2022/05/27 00:37:57;;;;;;;35.88;21.95;;;14.50;99.90;;;;;;5096563;28;20064;-84
2022/05/27 00:40:24;;;;;;;32.92;22.35;;;14.50;99.90;;;;;;5101290;28;20031;-84
2022/05/27 00:42:50;;;;;;;34.58;23.38;;;14.50;99.90;;;;;;5101485;28;20035;-84
2022/05/27 00:45:21;;;;;;;32.17;23.30;;;14.50;99.90;;;;;;5099409;28;20028;-83
2022/05/27 00:47:52;;;;;;;33.78;22.35;;;14.50;99.90;;;;;;5100133;28;20062;-83
2022/05/27 00:50:21;;;;;;;33.42;22.83;;;14.40;99.90;;;;;;5099562;28;20400;-83
2022/05/27 00:52:48;;;;;;;33.40;21.42;;;14.50;99.90;;;;;;5059917;28;20097;-83
2022/05/27 00:55:21;;;;;;;36.10;22.67;;;14.50;99.90;;;;;;5059846;28;20029;-83
2022/05/27 00:57:58;;;;;;;30.42;22.52;;;14.50;99.90;;;;;;5059762;28;20028;-84
2022/05/27 01:00:25;;;;;;;37.00;23.60;;;14.50;99.90;;;;;;5060773;28;20052;-84
2022/05/27 01:02:54;;;;;;;35.42;23.25;;;14.50;99.90;;;;;;5060991;28;20044;-84
2022/05/27 01:05:22;;;;;;;34.05;22.50;;;14.50;99.90;;;;;;5076484;28;20029;-84
2022/05/27 01:07:50;;;;;;;30.38;19.70;;;14.50;99.90;;;;;;5094746;28;20053;-83
2022/05/27 01:10:18;;;;;;;29.58;21.33;;;14.50;99.90;;;;;;5100229;28;20028;-84
2022/05/27 01:13:06;;;;;;;28.55;21.15;;;14.50;99.90;;;;;;5096972;28;20021;-84
2022/05/27 01:16:17;;;;;;;31.38;21.50;;;14.50;99.90;;;;;;5067207;28;20021;-85
2022/05/27 01:22:41;;;;;;;31.13;20.63;;;14.50;99.90;;;;;;5046809;28;20496;-86
2022/05/27 01:25:38;;;;;;;26.52;18.92;;;14.50;99.90;;;;;;5081885;28;20266;-85
2022/05/27 01:28:34;;;;;;;26.65;18.75;;;14.50;99.90;;;;;;5080281;28;20029;-84
2022/05/27 01:31:27;;;;;;;28.98;18.13;;;14.60;99.90;;;;;;5068714;28;20082;-83
2022/05/27 01:34:21;;;;;;;27.70;19.65;;;14.60;99.90;;;;;;5080088;28;20459;-84
2022/05/27 01:37:00;;;;;;;26.63;18.52;;;14.50;99.90;;;;;;5080261;28;20260;-83
2022/05/27 01:39:39;;;;;;;26.95;18.67;;;14.50;99.90;;;;;;5079443;28;20164;-84
2022/05/27 01:42:16;;;;;;;27.02;17.92;;;14.50;99.90;;;;;;5079649;28;20025;-84
2022/05/27 01:45:07;;;;;;;26.23;18.00;;;14.60;99.90;;;;;;5080455;28;20084;-83
2022/05/27 01:47:43;;;;;;;29.50;17.77;;;14.60;99.90;;;;;;5080591;28;20039;-84
2022/05/27 01:50:41;;;;;;;27.70;18.75;;;14.60;99.90;;;;;;5085346;28;20025;-84
2022/05/27 01:53:26;;;;;;;27.95;18.23;;;14.60;99.90;;;;;;5082053;28;20037;-84
2022/05/27 01:56:09;;;;;;;28.48;17.63;;;14.60;99.90;;;;;;5085757;28;20029;-84
2022/05/27 01:58:47;;;;;;;31.80;18.30;;;14.60;99.90;;;;;;5084738;28;20024;-84
2022/05/27 02:01:22;;;;;;;28.98;17.88;;;14.50;99.90;;;;;;5085709;28;20042;-84
2022/05/27 02:04:07;;;;;;;25.83;19.10;;;14.50;99.90;;;;;;5083558;28;20024;-86
2022/05/27 02:06:58;;;;;;;28.63;19.13;;;14.50;99.90;;;;;;5072835;28;20012;-86
2022/05/27 02:09:24;;;;;;;;;;;14.50;99.90;;;;;;5107531;28;20020;-87
2022/05/27 02:11:56;;;;;;;28.25;19.67;;;14.50;99.90;;;;;;5105172;28;19990;-86
2022/05/27 02:14:45;;;;;;;25.83;18.23;;;14.50;99.90;;;;;;5105434;28;20035;-86
2022/05/27 02:17:15;;;;;;;35.42;22.17;;;14.50;99.90;;;;;;5105068;28;20546;-83
2022/05/27 02:19:50;;;;;;;31.27;20.65;;;14.50;99.90;;;;;;5098617;28;20020;-82
2022/05/27 02:22:21;;;;;;;35.92;22.40;;;14.40;99.90;;;;;;5096743;28;20111;-82
2022/05/27 02:25:05;;;;;;;31.15;20.77;;;14.40;99.90;;;;;;5094808;28;20538;-82
2022/05/27 02:27:43;;;;;;;28.73;20.45;;;14.40;99.90;;;;;;5094904;28;20036;-82
2022/05/27 02:30:12;;;;;;;27.70;18.75;;;14.30;99.90;;;;;;5095443;28;20489;-83
2022/05/27 02:32:47;;;;;;;29.07;18.97;;;14.30;99.90;;;;;;5093949;28;20416;-82
2022/05/27 02:35:21;;;;;;;32.53;21.50;;;14.30;99.90;;;;;;5081162;28;20028;-82
2022/05/27 02:37:51;;;;;;;32.53;22.65;;;14.20;99.90;;;;;;5077022;28;20021;-83
2022/05/27 02:40:30;;;;;;;33.05;22.88;;;14.20;99.90;;;;;;5075393;28;20477;-82
2022/05/27 02:43:19;;;;;;;35.22;22.95;;;14.20;99.90;;;;;;5073744;28;20040;-82
2022/05/27 02:46:32;;;;;;;38.38;24.50;;;14.20;99.90;;;;;;5075208;28;20020;-82
2022/05/27 02:49:24;;;;;;;29.88;19.52;;;14.20;99.90;;;;;;5073060;28;20123;-82
2022/05/27 02:52:06;;;;;;;33.17;20.52;;;14.10;99.90;;;;;;5073019;28;20031;-83
2022/05/27 02:54:33;;;;;;;7.50;5.05;;;14.10;99.90;;;;;;5074763;28;20099;-82
2022/05/27 02:57:14;;;;;;;7.90;3.65;;;13.80;99.90;;;;;;5073038;28;20029;-81
2022/05/27 02:59:40;;;;;;;6.22;3.05;;;13.40;99.90;;;;;;5072075;28;20028;-81
2022/05/27 03:02:12;;;;;;;10.45;3.55;;;13.10;99.90;;;;;;5073442;28;20035;-81
2022/05/27 03:04:54;;;;;;;6.97;3.55;;;12.90;99.90;;;;;;5077334;28;20381;-82
2022/05/27 03:07:52;;;;;;;7.45;3.83;;;12.70;99.90;;;;;;5083887;28;20028;-81
2022/05/27 03:10:44;;;;;;;8.45;3.58;;;12.50;99.90;;;;;;5073355;28;20032;-81
2022/05/27 03:13:34;;;;;;;7.72;3.03;;;12.30;99.90;;;;;;5071115;28;20043;-81
2022/05/27 03:16:12;;;;;;;5.57;3.10;;;12.20;99.90;;;;;;5072315;28;20031;-81
2022/05/27 03:18:47;;;;;;;5.43;3.72;;;12.10;99.90;;;;;;5072017;28;20024;-81
2022/05/27 03:21:36;;;;;;;7.95;3.53;;;12.00;99.90;;;;;;5071964;28;20021;-81
2022/05/27 03:24:20;;;;;;;6.15;3.50;;;12.00;99.90;;;;;;5073093;28;20419;-81
2022/05/27 03:27:07;;;;;;;14.77;3.88;;;11.90;99.90;;;;;;5072846;28;20020;-81
2022/05/27 03:30:02;;;;;;;7.22;4.15;;;11.90;99.90;;;;;;5071426;28;20032;-81
2022/05/27 03:32:55;;;;;;;6.38;4.22;;;11.90;99.90;;;;;;5071741;28;20063;-82
2022/05/27 03:35:43;;;;;;;10.23;4.85;;;11.90;99.90;;;;;;5073295;28;20432;-81
2022/05/27 03:38:47;;;;;;;11.23;5.28;;;11.80;99.90;;;;;;5073889;28;20473;-81
2022/05/27 03:41:28;;;;;;;12.55;5.15;;;11.80;99.90;;;;;;5070587;28;20032;-81
2022/05/27 03:43:53;;;;;;;9.38;4.50;;;11.90;99.90;;;;;;5072202;28;20047;-81
2022/05/27 03:46:32;;;;;;;5.28;4.35;;;11.90;99.90;;;;;;5070422;28;20025;-83
2022/05/27 03:48:58;;;;;;;13.65;5.25;;;11.90;99.90;;;;;;5069453;28;20697;-83
2022/05/27 03:51:30;;;;;;;7.95;5.25;;;11.90;99.90;;;;;;5068607;28;20065;-82
2022/05/27 03:54:05;;;;;;;9.82;4.68;;;11.90;99.90;;;;;;5069950;28;20039;-83
2022/05/27 03:56:39;;;;;;;6.95;4.22;;;11.90;99.90;;;;;;5070527;28;20162;-83
2022/05/27 03:59:07;;;;;;;7.15;4.28;;;11.90;99.90;;;;;;5070902;28;20079;-83
2022/05/27 04:01:38;;;;;;;7.70;5.22;;;11.90;99.90;;;;;;5071642;28;20077;-83
2022/05/27 04:04:04;;;;;;;;;;;12.00;99.90;;;;;;5070885;28;20549;-83
2022/05/27 04:06:30;;;;;;;8.75;4.85;;;12.00;99.90;;;;;;5080829;28;19904;-82
2022/05/27 04:08:59;;;;;;;10.52;5.10;;;11.90;99.90;;;;;;5090499;28;20132;-83
2022/05/27 04:11:27;;;;;;;8.73;5.70;;;12.00;99.90;;;;;;5090484;28;20366;-83
2022/05/27 04:13:53;;;;;;;8.63;5.47;;;12.10;99.90;;;;;;5091170;28;20404;-84
2022/05/27 04:16:19;;;;;;;11.38;5.88;;;12.10;99.90;;;;;;5090362;28;20024;-83
2022/05/27 04:18:47;;;;;;;9.73;5.60;;;12.20;99.90;;;;;;5090514;28;20024;-83
2022/05/27 04:21:14;;;;;;;9.82;5.07;;;12.20;99.90;;;;;;5073935;28;20024;-82
2022/05/27 04:23:40;;;;;;;10.57;5.20;;;12.10;99.90;;;;;;5092437;28;20129;-81
2022/05/27 04:26:09;;;;;;;11.18;5.40;;;12.10;99.90;;;;;;5090810;28;20020;-82
2022/05/27 04:28:35;;;;;;;9.68;5.65;;;12.10;99.90;;;;;;5091104;28;20473;-82
2022/05/27 04:31:02;;;;;;;8.45;5.75;;;12.20;99.90;;;;;;5091320;28;20221;-82
2022/05/27 04:33:28;;;;;;;9.63;6.00;;;12.20;99.90;;;;;;5092136;28;20028;-82
2022/05/27 04:35:55;;;;;;;8.27;6.05;;;12.20;99.90;;;;;;5078673;28;20077;-82
2022/05/27 04:38:22;;;;;;;10.80;6.38;;;12.30;99.90;;;;;;5089935;28;20073;-82
2022/05/27 04:40:47;;;;;;;8.55;6.20;;;12.30;99.90;;;;;;5089584;28;20031;-82
2022/05/27 04:43:14;;;;;;;7.80;6.13;;;12.30;99.90;;;;;;5089673;28;20020;-83
2022/05/27 04:45:40;;;;;;;10.10;5.82;;;12.30;99.90;;;;;;5089933;28;20038;-82
2022/05/27 04:48:06;;;;;;;10.60;5.95;;;12.40;99.90;;;;;;5091769;28;20103;-82
2022/05/27 04:50:33;;;;;;;11.90;5.93;;;12.40;99.90;;;;;;5090004;28;20313;-82
2022/05/27 04:53:00;;;;;;;8.60;6.07;;;12.40;99.90;;;;;;5091347;28;20050;-83
2022/05/27 04:55:30;;;;;;;10.27;6.38;;;12.50;99.90;;;;;;5092104;28;20445;-83
2022/05/27 04:57:56;;;;;;;10.55;6.63;;;12.60;99.90;;;;;;5091935;28;20024;-82
2022/05/27 05:00:37;;;;;;;12.80;6.65;;;12.60;99.90;;;;;;5091610;28;20040;-83
2022/05/27 05:03:04;;;;;;;9.63;6.80;;;12.60;99.90;;;;;;5091525;28;20016;-83
2022/05/27 05:05:35;;;;;;;10.95;7.05;;;12.60;99.90;;;;;;5086414;28;20054;-83
2022/05/27 05:08:05;;;;;;;8.32;6.72;;;12.60;99.90;;;;;;5091666;28;20024;-82
2022/05/27 05:10:31;;;;;;;15.00;8.05;;;12.70;99.90;;;;;;5091283;28;20268;-83
2022/05/27 05:12:58;;;;;;;9.60;7.07;;;12.80;99.90;;;;;;5091502;28;20055;-84
2022/05/27 05:15:26;;;;;;;10.32;6.45;;;12.80;99.90;;;;;;5092955;28;20128;-82
2022/05/27 05:17:54;;;;;;;9.38;6.32;;;12.80;99.90;;;;;;5093785;28;20017;-81
2022/05/27 05:20:25;;;;;;;11.55;6.68;;;12.80;99.90;;;;;;5092604;28;20511;-80
2022/05/27 05:22:51;;;;;;;11.07;6.95;;;12.90;99.90;;;;;;5098242;28;20066;-83
2022/05/27 05:25:17;;;;;;;12.27;6.95;;;12.90;99.90;;;;;;5085933;28;20020;-82
2022/05/27 05:28:01;;;;;;;9.73;6.75;;;13.00;99.90;;;;;;5077959;28;20369;-85
2022/05/27 05:34:36;;;;;;;13.77;7.53;;;13.10;99.90;;;;;;5053536;28;20045;-87
2022/05/27 05:50:53;;;;;;;11.85;6.95;;;13.30;99.90;;;;;;4999734;28;20029;-86
2022/05/27 06:07:07;;;;;;;15.38;6.05;;;13.30;99.90;;;;;;4962637;29;20051;-84
2022/05/27 06:09:36;;;;;;;16.83;5.47;;;13.40;99.90;;;;;;4988075;28;20034;-86
2022/05/27 06:12:06;;;;;;;21.70;5.33;;;13.40;99.90;;;;;;4987295;28;20093;-86
2022/05/27 06:14:35;;;;;;;15.15;4.97;;;13.40;99.90;;;;;;4984490;28;20476;-85
2022/05/27 06:17:00;;;;;;;17.98;5.65;;;13.40;99.90;;;;;;5015576;28;20547;-85
2022/05/27 06:19:29;;;;;;;15.30;4.75;;;13.50;99.90;;;;;;5059879;28;20021;-85
2022/05/27 06:21:55;;;;;;;12.13;5.10;;;13.40;99.90;;;;;;5056962;28;20031;-85
2022/05/27 06:24:23;;;;;;;14.00;4.95;;;13.50;99.90;;;;;;5071988;28;20021;-85
2022/05/27 06:26:51;;;;;;;17.38;5.57;;;13.60;99.90;;;;;;5069709;28;20036;-84
2022/05/27 06:34:54;;;;;;;26.38;5.25;;;13.90;99.90;;;;;;5076890;28;20035;-85
2022/05/27 06:37:21;;;;;;;12.65;4.07;;;13.90;99.90;;;;;;5083489;28;20457;-85
2022/05/27 06:39:47;;;;;;;8.82;3.53;;;13.90;99.90;;;;;;5076780;28;20017;-85
2022/05/27 06:42:15;;;;;;;10.73;3.03;;;13.90;99.90;;;;;;5076946;28;20025;-86
2022/05/27 06:44:44;;;;;;;9.38;2.88;;;13.90;99.90;;;;;;5074789;28;20119;-85
2022/05/27 06:47:10;;;;;;;9.52;2.80;;;14.00;99.90;;;;;;5077224;28;20085;-86
2022/05/27 06:49:39;;;;;;;24.27;4.03;;;14.00;99.90;;;;;;5082351;28;20028;-89
2022/05/27 06:52:06;;;;;;;12.32;4.18;;;14.10;99.90;;;;;;5081262;28;20103;-85
2022/05/27 06:54:34;;;;;;;10.05;2.95;;;14.10;99.90;;;;;;5078337;28;20074;-84
2022/05/27 06:57:00;;;;;;;10.63;2.97;;;14.20;99.90;;;;;;5080199;28;20028;-83
2022/05/27 06:59:26;;;;;;;15.05;3.60;;;14.40;99.90;;;;;;5082333;28;20016;-85
2022/05/27 07:01:54;;;;;;;14.30;2.90;;;14.40;99.90;;;;;;5083568;28;20025;-84
2022/05/27 07:04:20;;;;;;;12.50;2.78;;;14.40;99.90;;;;;;5083155;28;20485;-85
2022/05/27 07:06:47;;;;;;;9.25;2.60;;;14.40;99.90;;;;;;5084057;28;20051;-85
2022/05/27 07:09:16;;;;;;;9.50;2.80;;;14.50;99.90;;;;;;5083729;28;20035;-85
2022/05/27 07:11:45;;;;;;;7.70;2.30;;;14.60;99.90;;;;;;5084114;28;20100;-85
2022/05/27 07:14:13;;;;;;;6.90;2.45;;;14.70;99.90;;;;;;5084405;28;20033;-84
2022/05/27 07:16:40;;;;;;;10.15;3.15;;;14.70;99.90;;;;;;5083251;28;20027;-84
2022/05/27 07:19:06;;;;;;;10.20;2.83;;;14.70;99.90;;;;;;5084058;28;20021;-84
2022/05/27 07:21:39;;;;;;;11.85;2.78;;;14.60;99.90;;;;;;5084176;28;20025;-85
2022/05/27 07:24:08;;;;;;;6.97;2.08;;;14.70;99.90;;;;;;5084724;28;20036;-85
2022/05/27 07:26:34;;;;;;;9.77;2.90;;;14.80;99.90;;;;;;5082422;28;20039;-84
2022/05/27 07:29:00;;;;;;;10.88;2.50;;;14.90;99.90;;;;;;5081917;28;20024;-85
2022/05/27 07:31:25;;;;;;;10.65;3.03;;;15.10;99.90;;;;;;5082337;28;20028;-85
2022/05/27 07:33:51;;;;;;;9.32;3.10;;;15.20;99.90;;;;;;5083395;28;20039;-85
2022/05/27 07:36:17;;;;;;;11.25;3.00;;;15.30;99.90;;;;;;5083781;28;20024;-84
2022/05/27 07:38:42;;;;;;;10.18;3.08;;;15.30;99.90;;;;;;5083188;28;20084;-85
2022/05/27 07:41:14;;;;;;;12.57;2.95;;;15.40;99.90;;;;;;5081378;28;20017;-84
2022/05/27 07:43:42;;;;;;;12.70;3.35;;;15.40;99.90;;;;;;5083292;28;20581;-85
2022/05/27 07:46:10;;;;;;;10.63;2.80;;;15.70;99.90;;;;;;5082396;28;20025;-84
2022/05/27 07:48:36;;;;;;;12.70;2.60;;;15.70;99.90;;;;;;5083030;28;20055;-85
2022/05/27 07:51:02;;;;;;;8.90;2.50;;;15.90;99.90;;;;;;5081454;28;20029;-84
2022/05/27 07:53:28;;;;;;;9.18;2.97;;;16.00;99.90;;;;;;5082699;28;20024;-84
2022/05/27 07:55:53;;;;;;;9.30;3.03;;;16.00;99.90;;;;;;5083767;28;20033;-84
2022/05/27 07:58:20;;;;;;;9.25;2.80;;;16.10;99.90;;;;;;5081670;28;20029;-84
2022/05/27 08:00:46;;;;;;;9.45;2.50;;;16.40;99.90;;;;;;5080809;28;20027;-85
2022/05/27 08:03:12;;;;;;;13.75;3.42;;;16.50;99.90;;;;;;5081196;28;20024;-86
2022/05/27 08:05:39;;;;;;;10.70;3.70;;;16.80;99.90;;;;;;5079561;28;20031;-84
2022/05/27 08:08:04;;;;;;;8.93;2.70;;;16.80;99.90;;;;;;5081153;28;20024;-85
2022/05/27 08:10:33;;;;;;;9.30;2.75;;;16.70;99.90;;;;;;5081761;28;20031;-84
2022/05/27 08:13:00;;;;;;;13.68;2.92;;;16.70;99.90;;;;;;5081464;28;20036;-85
2022/05/27 08:15:26;;;;;;;8.98;3.20;;;16.70;99.90;;;;;;5081093;28;20074;-84
2022/05/27 08:17:52;;;;;;;14.80;3.05;;;16.90;99.90;;;;;;5081891;28;20102;-84
2022/05/27 08:20:21;;;;;;;9.18;3.55;;;16.80;99.90;;;;;;5080555;28;20021;-84
2022/05/27 08:22:48;;;;;;;8.38;2.88;;;16.40;99.90;;;;;;5082016;28;20028;-84
2022/05/27 08:25:15;;;;;;;9.35;2.85;;;16.40;99.90;;;;;;5083009;28;20472;-83
2022/05/27 08:27:41;;;;;;;11.45;3.33;;;16.80;99.90;;;;;;5082795;28;20032;-84
2022/05/27 08:30:15;;;;;;;14.90;2.72;;;16.90;98.80;;;;;;5081553;28;20493;-84
2022/05/27 08:32:41;;;;;;;9.73;2.95;;;17.40;97.70;;;;;;5081108;28;20092;-84
2022/05/27 08:38:01;;;;;;;13.05;2.67;;;17.20;95.90;;;;;;5081995;28;20090;-84
2022/05/27 08:41:04;;;;;;;6.85;3.05;;;17.20;95.90;;;;;;5081618;28;20080;-85
2022/05/27 08:43:44;;;;;;;8.20;2.97;;;17.30;95.60;;;;;;5080520;28;20020;-84
2022/05/27 08:46:31;;;;;;;10.80;2.53;;;17.00;96.10;;;;;;5079725;28;20052;-84
2022/05/27 08:49:01;;;;;;;6.07;2.60;;;17.00;97.00;;;;;;5080294;28;20266;-85
2022/05/27 08:52:06;;;;;;;6.95;2.38;;;17.10;96.00;;;;;;5079593;28;20032;-84
2022/05/27 08:54:48;;;;;;;15.10;3.20;;;18.20;94.40;;;;;;5078208;28;20044;-84
2022/05/27 09:00:14;;;;;;;8.70;2.60;;;18.50;92.50;;;;;;5078478;28;20043;-85
2022/05/27 09:02:50;;;;;;;7.13;3.13;;;19.80;91.20;;;;;;5074396;28;20056;-84
2022/05/27 09:05:23;;;;;;;8.30;2.50;;;20.30;90.40;;;;;;5077085;28;20483;-84
2022/05/27 09:07:59;;;;;;;8.45;2.47;;;21.20;84.30;;;;;;5080162;28;20051;-84
2022/05/27 09:10:45;;;;;;;11.55;2.97;;;21.90;76.80;;;;;;5079822;28;20025;-84
2022/05/27 09:13:41;;;;;;;8.73;2.42;;;22.90;72.90;;;;;;5078113;28;20036;-84
2022/05/27 09:16:18;;;;;;;5.53;2.47;;;23.40;71.60;;;;;;5064575;28;20494;-84
2022/05/27 09:19:12;;;;;;;9.10;2.30;;;24.30;68.60;;;;;;5077745;28;20028;-85
2022/05/27 09:22:25;;;;;;;8.02;2.60;;;24.40;63.20;;;;;;5078632;28;20027;-85
2022/05/27 09:25:19;;;;;;;7.57;2.58;;;23.30;64.60;;;;;;5056634;28;20055;-84
2022/05/27 09:28:17;;;;;;;10.00;2.53;;;22.20;65.90;;;;;;5079061;28;20028;-84
2022/05/27 09:30:43;;;;;;;9.57;2.90;;;21.00;69.70;;;;;;5079476;28;20170;-84
2022/05/27 09:33:21;;;;;;;9.20;2.50;;;20.40;72.00;;;;;;5081108;28;20012;-84
2022/05/27 09:36:09;;;;;;;7.97;2.30;;;19.70;73.40;;;;;;5078584;28;20545;-83
2022/05/27 09:38:43;;;;;;;8.18;2.53;;;19.30;75.30;;;;;;5079126;28;20031;-84
2022/05/27 09:41:32;;;;;;;9.32;2.70;;;20.30;75.30;;;;;;5079850;28;20043;-84
2022/05/27 09:44:17;;;;;;;9.13;2.78;;;22.10;72.00;;;;;;5079881;28;20028;-84
2022/05/27 09:46:43;;;;;;;9.57;2.95;;;23.60;65.40;;;;;;5079839;28;20044;-84
2022/05/27 09:49:10;;;;;;;7.22;3.10;;;24.20;64.10;;;;;;5075580;28;20038;-85
2022/05/27 09:51:35;;;;;;;8.10;2.38;;;24.30;62.20;;;;;;5070255;28;20028;-84
2022/05/27 09:54:15;;;;;;;7.40;2.60;;;23.40;62.10;;;;;;5071979;28;20035;-84
2022/05/27 09:56:54;;;;;;;8.30;2.43;;;22.10;65.20;;;;;;5072019;28;20096;-84
2022/05/27 09:59:26;;;;;;;8.02;2.47;;;21.60;67.70;;;;;;5071664;28;20028;-84
2022/05/27 10:01:52;;;;;;;10.98;2.85;;;22.30;66.80;;;;;;5071716;28;20036;-84
2022/05/27 10:04:18;;;;;;;12.10;3.10;;;22.80;66.40;;;;;;5072247;28;20024;-84
2022/05/27 10:06:46;;;;;;;9.75;2.38;;;23.20;68.00;;;;;;5072044;28;20024;-84
2022/05/27 10:09:30;;;;;;;8.45;2.63;;;22.90;63.30;;;;;;5073537;28;20082;-84
2022/05/27 10:11:58;;;;;;;6.38;2.70;;;21.50;63.80;;;;;;5075521;28;20100;-84
2022/05/27 10:14:29;;;;;;;6.75;2.38;;;20.90;67.60;;;;;;5074278;28;20035;-84
2022/05/27 10:17:09;;;;;;;8.10;2.80;;;20.60;70.60;;;;;;5075681;28;20031;-84
2022/05/27 10:19:36;;;;;;;7.00;2.50;;;20.50;69.90;;;;;;5074159;28;20043;-84
2022/05/27 10:22:21;;;;;;;7.95;2.72;;;21.20;68.30;;;;;;5075610;28;20047;-85
2022/05/27 10:25:11;;;;;;;5.55;2.63;;;22.90;69.90;;;;;;5075610;28;20024;-84
2022/05/27 10:27:44;;;;;;;9.20;2.70;;;23.50;68.00;;;;;;5064147;28;20583;-84
2022/05/27 10:30:18;;;;;;;7.53;2.55;;;23.60;60.80;;;;;;5073693;28;20047;-84
2022/05/27 10:32:44;;;;;;;9.63;2.40;;;24.40;61.90;;;;;;5074036;28;20511;-84
2022/05/27 10:35:16;;;;;;;8.65;2.50;;;24.20;58.80;;;;;;5074879;28;20029;-84
2022/05/27 10:38:22;;;;;;;6.85;2.47;;;23.70;56.00;;;;;;5075201;28;20029;-84
2022/05/27 10:41:21;;;;;;;9.38;2.67;;;23.50;57.80;;;;;;5057876;28;20021;-84
2022/05/27 10:44:13;;;;;;;9.55;2.33;;;22.30;61.80;;;;;;5052296;28;20032;-84
2022/05/27 10:46:47;;;;;;;8.77;2.45;;;21.70;59.90;;;;;;5052869;28;20394;-84
2022/05/27 10:49:33;;;;;;;7.95;2.72;;;21.10;61.30;;;;;;5051655;28;20021;-87
2022/05/27 10:52:22;;;;;;;8.52;2.47;;;21.60;61.30;;;;;;5051874;28;20532;-87
2022/05/27 10:55:14;;;;;;;8.75;2.53;;;21.30;62.10;;;;;;5054678;28;20559;-89
2022/05/27 11:03:59;;;;;;;8.60;2.67;;;20.60;67.90;;;;;;5053083;28;20110;-88
2022/05/27 11:06:31;;;;;;;7.60;2.25;;;20.60;62.10;;;;;;5070769;28;20024;-88
2022/05/27 11:09:21;;;;;;;8.10;2.47;;;20.50;64.00;;;;;;5070707;28;20020;-88
2022/05/27 11:11:47;;;;;;;;;;;20.10;61.90;;;;;;5071503;28;20035;-88
2022/05/27 11:17:53;;;;;;;12.52;2.50;;;19.40;63.50;;;;;;5069150;28;20028;-89
2022/05/27 11:20:51;;;;;;;8.00;2.33;;;20.80;64.70;;;;;;5071305;28;20123;-90
2022/05/27 11:23:52;;;;;;;5.35;2.10;;;22.20;61.60;;;;;;5071748;28;20052;-90
2022/05/27 11:26:55;;;;;;;9.80;2.03;;;23.40;57.90;;;;;;5071554;28;20273;-90
2022/05/27 11:29:54;;;;;;;8.05;2.53;;;23.90;56.50;;;;;;5069026;28;20494;-91
2022/05/27 11:32:58;;;;;;;9.07;2.60;;;24.40;55.50;;;;;;5062033;28;20358;-91
2022/05/27 11:35:35;;;;;;;5.60;2.25;;;25.60;56.60;;;;;;5062927;28;20033;-90
2022/05/27 11:38:22;;;;;;;6.20;2.65;;;26.30;50.90;;;;;;5053646;28;20021;-90
2022/05/27 11:41:09;;;;;;;5.53;2.00;;;26.60;49.60;;;;;;5051027;28;20036;-88
2022/05/27 11:43:46;;;;;;;10.00;2.00;;;26.50;49.30;;;;;;5067544;28;20028;-90
2022/05/27 11:46:36;;;;;;;9.00;2.45;;;24.60;51.10;;;;;;5075394;28;20055;-91
2022/05/27 11:49:24;;;;;;;;;;;23.20;56.50;;;;;;5058377;28;20039;-91
2022/05/27 11:52:27;;;;;;;6.13;2.42;;;22.20;57.30;;;;;;5059441;28;19908;-86
2022/05/27 11:55:22;;;;;;;7.68;2.53;;;22.10;57.70;;;;;;5053439;28;20040;-87
2022/05/27 11:58:07;;;;;;;8.20;2.90;;;21.50;58.40;;;;;;5060870;28;20482;-86
2022/05/27 12:00:39;;;;;;;10.05;2.65;;;21.60;58.00;;;;;;5058933;28;20448;-86
2022/05/27 12:03:31;;;;;;;10.25;2.65;;;21.60;56.80;;;;;;5064851;28;20523;-85
2022/05/27 12:06:03;;;;;;;7.45;2.80;;;22.30;56.80;;;;;;5069033;28;20121;-85
2022/05/27 12:08:39;;;;;;;7.63;2.83;;;22.10;56.00;;;;;;5069031;28;20041;-86
2022/05/27 12:11:16;;;;;;;8.93;2.35;;;22.00;57.20;;;;;;5054776;28;20082;-85
2022/05/27 12:13:49;;;;;;;14.40;2.95;;;21.60;57.40;;;;;;5058383;28;20094;-85
2022/05/27 12:16:27;;;;;;;14.95;2.85;;;21.00;57.60;;;;;;5057996;28;20025;-85
2022/05/27 12:19:24;;;;;;;5.82;2.05;;;20.60;59.80;;;;;;5059480;28;20044;-85
2022/05/27 12:22:05;;;;;;;14.10;2.67;;;20.40;59.60;;;;;;5059272;28;20020;-85
2022/05/27 12:24:56;;;;;;;8.05;2.58;;;20.50;59.40;;;;;;5053856;28;20025;-86
2022/05/27 12:27:23;;;;;;;13.80;2.40;;;20.70;59.40;;;;;;5056698;28;20028;-86
2022/05/27 12:29:50;;;;;;;8.20;2.47;;;21.00;58.10;;;;;;5060999;28;20112;-85
2022/05/27 12:32:18;;;;;;;8.73;2.47;;;21.30;59.10;;;;;;5059207;28;20033;-85
2022/05/27 12:34:48;;;;;;;9.38;2.60;;;21.10;62.10;;;;;;5057783;28;20462;-85
2022/05/27 12:37:26;;;;;;;5.97;2.40;;;20.90;58.80;;;;;;5053290;28;20044;-85
2022/05/27 12:40:14;;;;;;;10.10;2.85;;;20.80;58.50;;;;;;5050885;28;20029;-84
2022/05/27 12:42:43;;;;;;;5.68;2.17;;;20.40;58.80;;;;;;5041557;28;20039;-84
2022/05/27 12:45:27;;;;;;;5.68;2.13;;;21.00;59.00;;;;;;5052272;28;20437;-85
2022/05/27 12:47:53;;;;;;;7.28;2.70;;;21.20;57.10;;;;;;5049613;28;20029;-85
2022/05/27 12:50:30;;;;;;;7.22;2.22;;;21.00;58.30;;;;;;5045872;28;20091;-84
2022/05/27 12:52:58;;;;;;;8.45;2.30;;;21.10;58.30;;;;;;5048225;28;20067;-84
2022/05/27 13:01:28;;;;;;;12.07;3.17;;;20.70;57.90;;;;;;5048505;28;20090;-84
2022/05/27 13:03:56;;;;;;;9.57;2.60;;;21.00;57.20;;;;;;5049315;28;20440;-84
2022/05/27 13:06:25;;;;;;;8.13;2.40;;;21.10;57.50;;;;;;5047677;28;20496;-84
2022/05/27 13:08:53;;;;;;;7.32;2.20;;;20.80;55.60;;;;;;5048869;28;20111;-84
2022/05/27 13:11:21;;;;;;;7.88;1.98;;;20.90;57.40;;;;;;5048250;28;20166;-83
2022/05/27 13:13:52;;;;;;;8.88;2.20;;;20.80;55.50;;;;;;5047189;28;20026;-84
2022/05/27 13:16:40;;;;;;;7.47;2.20;;;20.90;56.00;;;;;;5047302;28;20154;-85
2022/05/27 13:19:08;;;;;;;5.55;1.95;;;20.60;55.50;;;;;;5048864;28;20025;-84
2022/05/27 13:21:47;;;;;;;8.02;1.92;;;20.80;57.60;;;;;;5048012;28;20413;-84
2022/05/27 13:24:12;;;;;;;5.68;1.92;;;20.90;56.10;;;;;;5047363;28;20029;-84
2022/05/27 13:26:51;;;;;;;7.15;2.20;;;20.70;56.60;;;;;;5048582;28;20040;-84
2022/05/27 13:29:24;;;;;;;9.02;2.78;;;20.90;57.00;;;;;;5048642;28;20013;-83
2022/05/27 13:31:55;;;;;;;12.50;2.65;;;20.50;57.20;;;;;;5046818;28;20028;-84
2022/05/27 13:34:31;;;;;;;8.80;2.00;;;20.30;59.40;;;;;;5047132;28;20106;-84
2022/05/27 13:37:00;;;;;;;8.75;2.72;;;20.20;58.30;;;;;;5048755;28;20029;-84
2022/05/27 13:39:39;;;;;;;8.70;2.33;;;19.90;59.30;;;;;;5048431;28;20571;-84
2022/05/27 13:42:09;;;;;;;7.65;1.90;;;19.80;59.70;;;;;;5047491;28;20029;-83
2022/05/27 13:44:39;;;;;;;7.30;2.28;;;20.30;59.20;;;;;;5052186;28;20133;-84
2022/05/27 13:47:10;;;;;;;11.27;2.67;;;20.50;58.20;;;;;;5051562;28;20576;-84
2022/05/27 13:49:42;;;;;;;8.70;2.58;;;20.30;60.20;;;;;;5051037;28;20031;-84
2022/05/27 13:52:28;;;;;;;11.15;2.00;;;20.20;58.90;;;;;;5052361;28;20492;-84
2022/05/27 13:55:06;;;;;;;6.55;2.13;;;20.30;60.40;;;;;;5052507;28;20025;-79
2022/05/27 13:57:34;;;;;;;6.53;1.80;;;20.00;60.60;;;;;;5051777;28;20140;-78
2022/05/27 14:00:03;;;;;;;4.97;1.95;;;20.20;62.20;;;;;;5051145;28;20027;-78
2022/05/27 14:02:47;;;;;;;6.45;2.28;;;20.30;59.10;;;;;;5051689;28;20141;-78
2022/05/27 14:05:23;;;;;;;6.05;1.92;;;20.30;60.50;;;;;;5051765;28;20080;-79
2022/05/27 14:07:55;;;;;;;10.88;2.20;;;20.10;59.20;;;;;;5051750;28;20539;-78
2022/05/27 14:10:27;;;;;;;14.32;1.95;;;20.10;60.40;;;;;;5050972;28;20550;-78
2022/05/27 14:12:56;;;;;;;6.97;2.10;;;20.10;60.50;;;;;;5050438;28;20033;-79
2022/05/27 14:15:31;;;;;;;10.70;2.15;;;20.00;60.80;;;;;;5051613;28;20037;-78
2022/05/27 14:17:58;;;;;;;10.35;2.33;;;19.50;61.80;;;;;;5050320;28;20526;-79
2022/05/27 14:23:27;;;;;;;10.20;2.30;;;19.40;63.80;;;;;;5051691;28;20497;-79
2022/05/27 14:25:58;;;;;;;10.98;2.22;;;19.50;62.20;;;;;;5050067;28;20036;-78